.
WxDataArchive / Data Records for 2012-08-14
2012-08-13 August 2012 2012-08-15

Data Records for Tuesday, 14 August 2012

Time	Temp	Chill	HIndex	Humid	Dewpt	 Wind 	HiWind	WindDir	Rain 	Barom 
-----	----	-----	------	-----	-----	------	------	-------	-----	----- 
00:00	65.0	65.0	65.0	93	62.9	0	0	---	0.00	29.901 
00:05	65.0	65.0	65.0	93	62.9	0	0	---	0.01	29.901 
00:10	64.8	64.8	64.8	93	62.7	0	0	---	0.00	29.901 
00:15	64.8	64.8	64.8	93	62.7	0	0	---	0.01	29.895 
00:20	64.8	64.8	64.8	93	62.7	0	1	112	0.00	29.895 
00:25	64.8	64.8	64.8	94	63.0	0	0	---	0.01	29.895 
00:30	64.8	64.8	64.8	94	63.0	0	2	112	0.01	29.893 
00:35	64.8	64.8	64.8	94	63.0	0	2	112	0.01	29.893 
00:40	64.7	64.7	64.7	94	62.9	0	1	112	0.00	29.893 
00:45	64.7	64.7	64.7	94	62.9	0	0	---	0.00	29.894 
00:50	64.7	64.7	64.7	94	62.9	0	0	---	0.00	29.894 
00:55	64.7	64.7	64.7	94	62.9	0	1	112	0.00	29.894 
01:00	64.5	64.5	64.5	94	62.7	0	0	---	0.00	29.894 
01:05	64.5	64.5	64.5	94	62.7	0	0	---	0.00	29.894 
01:10	64.5	64.5	64.5	94	62.7	0	0	---	0.00	29.894 
01:15	64.5	64.5	64.5	94	62.7	0	0	---	0.00	29.886 
01:20	64.5	64.5	64.5	94	62.7	0	0	---	0.00	29.886 
01:25	64.5	64.5	64.5	94	62.7	0	0	---	0.00	29.886 
01:30	64.3	64.3	64.3	94	62.5	0	0	---	0.00	29.887 
01:35	64.3	64.3	64.3	94	62.5	0	0	---	0.00	29.887 
01:40	64.3	64.3	64.3	94	62.5	0	0	---	0.00	29.887 
01:45	64.2	64.2	64.2	94	62.4	0	0	---	0.00	29.881 
01:50	64.0	64.0	64.0	94	62.2	0	0	---	0.01	29.881 
01:55	64.0	64.0	64.0	95	62.5	0	0	---	0.00	29.881 
02:00	63.9	63.9	63.9	94	62.1	0	1	112	0.00	29.880 
02:05	63.9	63.9	63.9	95	62.4	0	1	112	0.00	29.880 
02:10	63.7	63.7	63.7	95	62.2	0	1	112	0.00	29.880 
02:15	63.7	63.7	63.7	95	62.2	0	2	112	0.00	29.875 
02:20	63.7	63.7	63.7	95	62.2	0	1	112	0.00	29.875 
02:25	63.7	63.7	63.7	95	62.2	0	1	112	0.00	29.875 
02:30	63.7	63.7	63.7	95	62.2	0	1	112	0.00	29.873 
02:35	63.5	63.5	63.5	95	62.0	0	2	112	0.00	29.873 
02:40	63.5	63.5	63.5	95	62.0	0	1	112	0.00	29.873 
02:45	63.5	63.5	63.5	95	62.0	0	1	112	0.00	29.863 
02:50	63.5	63.5	63.5	95	62.0	0	2	112	0.00	29.863 
02:55	63.5	63.5	63.5	95	62.0	0	1	112	0.00	29.863 
03:00	63.5	63.5	63.5	95	62.0	0	2	112	0.00	29.857 
03:05	63.4	63.4	63.4	95	61.9	0	2	112	0.00	29.857 
03:10	63.5	63.5	63.5	95	62.0	0	2	112	0.00	29.857 
03:15	63.5	63.5	63.5	95	62.0	0	1	112	0.00	29.850 
03:20	63.5	63.5	63.5	95	62.0	0	0	---	0.00	29.850 
03:25	63.5	63.5	63.5	95	62.0	0	3	112	0.00	29.850 
03:30	63.5	63.5	63.5	95	62.0	0	2	112	0.00	29.848 
03:35	63.5	63.5	63.5	95	62.0	0	2	112	0.00	29.848 
03:40	63.5	63.5	63.5	95	62.0	0	2	112	0.00	29.848 
03:45	63.5	63.5	63.5	95	62.0	0	1	112	0.00	29.846 
03:50	63.5	63.5	63.5	95	62.0	1	2	112	0.00	29.846 
03:55	63.5	63.5	63.5	95	62.0	0	3	112	0.00	29.846 
04:00	63.5	63.5	63.5	95	62.0	0	2	112	0.00	29.847 
04:05	63.5	63.5	63.5	96	62.3	0	1	112	0.00	29.847 
04:10	63.5	63.5	63.5	96	62.3	0	1	112	0.00	29.847 
04:15	63.7	63.7	63.7	96	62.5	0	2	112	0.00	29.849 
04:20	63.7	63.7	63.7	96	62.5	0	3	112	0.00	29.849 
04:25	63.7	63.7	63.7	96	62.5	0	3	112	0.00	29.849 
04:30	63.7	63.7	63.7	96	62.5	0	3	112	0.00	29.851 
04:35	63.7	63.7	63.7	96	62.5	0	2	112	0.00	29.851 
04:40	63.7	63.7	63.7	96	62.5	0	0	---	0.00	29.851 
04:45	63.7	63.7	63.7	96	62.5	0	3	112	0.00	29.848 
04:50	63.7	63.7	63.7	96	62.5	0	1	112	0.00	29.848 
04:55	63.7	63.7	63.7	96	62.5	0	1	112	0.00	29.848 
05:00	63.7	63.7	63.7	96	62.5	0	1	112	0.00	29.850 
05:05	63.7	63.7	63.7	96	62.5	0	1	112	0.00	29.850 
05:10	63.7	63.7	63.7	96	62.5	0	2	112	0.00	29.850 
05:15	63.7	63.7	63.7	96	62.5	0	1	112	0.00	29.849 
05:20	63.7	63.7	63.7	96	62.5	0	2	112	0.00	29.849 
05:25	63.7	63.7	63.7	96	62.5	0	0	---	0.00	29.849 
05:30	63.7	63.7	63.7	96	62.5	0	1	112	0.00	29.850 
05:35	63.7	63.7	63.7	96	62.5	0	2	112	0.00	29.850 
05:40	63.5	63.5	63.5	96	62.3	0	2	112	0.00	29.850 
05:45	63.5	63.5	63.5	96	62.3	0	2	112	0.00	29.851 
05:50	63.5	63.5	63.5	96	62.3	0	1	112	0.00	29.851 
05:55	63.5	63.5	63.5	96	62.3	0	1	112	0.00	29.851 
06:00	63.4	63.4	63.4	96	62.2	0	2	112	0.00	29.853 
06:05	63.4	63.4	63.4	96	62.2	0	3	112	0.00	29.853 
06:10	63.4	63.4	63.4	96	62.2	0	3	112	0.00	29.853 
06:15	63.4	63.4	63.4	96	62.2	0	2	112	0.00	29.861 
06:20	63.4	63.4	63.4	96	62.2	0	0	---	0.00	29.861 
06:25	63.4	63.4	63.4	96	62.2	0	0	---	0.00	29.861 
06:30	63.4	63.4	63.4	96	62.2	0	1	112	0.00	29.865 
06:35	63.2	63.2	63.2	96	62.0	0	2	112	0.00	29.865 
06:40	63.2	63.2	63.2	96	62.0	0	1	112	0.00	29.865 
06:45	63.2	63.2	63.2	96	62.0	0	0	---	0.00	29.868 
06:50	63.1	63.1	63.1	96	61.9	0	2	112	0.00	29.868 
06:55	63.1	63.1	63.1	96	61.9	0	1	112	0.01	29.868 
07:00	63.1	63.1	63.1	96	61.9	0	0	---	0.00	29.871 
07:05	63.1	63.1	63.1	96	61.9	0	0	---	0.00	29.871 
07:10	63.1	63.1	63.1	96	61.9	0	1	112	0.00	29.871 
07:15	63.1	63.1	63.1	96	61.9	0	0	---	0.00	29.877 
07:20	63.1	63.1	63.1	96	61.9	0	2	112	0.00	29.877 
07:25	62.9	62.9	62.9	96	61.7	0	1	112	0.00	29.877 
07:30	62.9	62.9	62.9	96	61.7	0	2	112	0.00	29.881 
07:35	62.9	62.9	62.9	96	61.7	0	3	112	0.00	29.881 
07:40	62.9	62.9	62.9	96	61.7	0	1	112	0.00	29.881 
07:45	62.7	62.7	62.7	96	61.5	0	1	112	0.00	29.883 
07:50	62.9	62.9	62.9	96	61.7	0	0	---	0.00	29.883 
07:55	62.9	62.9	62.9	96	61.7	0	1	112	0.00	29.883 
08:00	62.7	62.7	62.7	96	61.5	0	2	112	0.00	29.892 
08:05	62.7	62.7	62.7	96	61.5	0	1	112	0.00	29.892 
08:10	62.7	62.7	62.7	96	61.5	0	1	112	0.00	29.892 
08:15	62.7	62.7	62.7	96	61.5	0	0	---	0.00	29.897 
08:20	62.7	62.7	62.7	96	61.5	0	1	112	0.00	29.897 
08:25	62.7	62.7	62.7	96	61.5	0	0	---	0.00	29.897 
08:30	62.7	62.7	62.7	96	61.5	0	0	---	0.00	29.897 
08:35	62.9	62.9	62.9	96	61.7	0	1	112	0.00	29.897 
08:40	62.9	62.9	62.9	96	61.7	0	0	---	0.00	29.897 
08:45	63.1	63.1	63.1	96	61.9	0	2	112	0.00	29.898 
08:50	63.1	63.1	63.1	96	61.9	0	2	112	0.00	29.898 
08:55	63.1	63.1	63.1	96	61.9	0	2	112	0.00	29.898 
09:00	63.1	63.1	63.1	96	61.9	0	1	112	0.00	29.898 
09:05	63.2	63.2	63.2	96	62.0	0	0	---	0.00	29.898 
09:10	63.2	63.2	63.2	96	62.0	1	3	112	0.00	29.898 
09:15	63.2	63.2	63.2	96	62.0	0	1	112	0.00	29.900 
09:20	63.4	63.4	63.4	96	62.2	0	1	112	0.00	29.900 
09:25	63.4	63.4	63.4	96	62.2	0	1	112	0.00	29.900 
09:30	63.2	63.2	63.2	96	62.0	0	2	112	0.00	29.899 
09:35	63.2	63.2	63.2	96	62.0	0	2	112	0.00	29.899 
09:40	63.4	63.4	63.4	96	62.2	0	2	112	0.00	29.899 
09:45	63.2	63.2	63.2	96	62.0	0	2	112	0.00	29.899 
09:50	63.4	63.4	63.4	96	62.2	0	1	112	0.00	29.899 
09:55	63.4	63.4	63.4	95	61.9	0	2	112	0.00	29.899 
10:00	63.5	63.5	63.5	95	62.0	0	1	112	0.00	29.899 
10:05	63.7	63.7	63.7	95	62.2	0	1	112	0.00	29.899 
10:10	63.5	63.5	63.5	95	62.0	0	1	112	0.00	29.899 
10:15	63.5	63.5	63.5	95	62.0	0	1	112	0.00	29.906 
10:20	63.7	63.7	63.7	95	62.2	0	3	112	0.00	29.906 
10:25	63.7	63.7	63.7	95	62.2	0	1	112	0.00	29.906 
10:30	63.9	63.9	63.9	95	62.4	0	0	---	0.00	29.905 
10:35	64.2	64.2	64.2	95	62.7	0	0	---	0.00	29.905 
10:40	64.3	64.3	64.3	95	62.8	0	0	---	0.00	29.905 
10:45	64.5	64.5	64.5	95	63.0	0	2	112	0.00	29.902 
10:50	64.5	64.5	64.5	95	63.0	0	2	112	0.00	29.902 
10:55	64.8	64.8	64.8	94	63.0	1	3	112	0.00	29.902 
11:00	65.2	65.2	65.2	94	63.4	0	2	112	0.00	29.900 
11:05	65.6	65.6	65.6	94	63.8	0	2	112	0.00	29.900 
11:10	65.8	65.8	65.8	93	63.7	1	3	112	0.00	29.900 
11:15	66.1	66.1	66.1	92	63.7	1	2	112	0.00	29.906 
11:20	66.1	66.1	66.1	90	63.1	0	2	112	0.00	29.906 
11:25	66.3	66.3	66.3	90	63.3	0	2	112	0.00	29.906 
11:30	66.3	66.3	66.3	90	63.3	0	2	112	0.00	29.914 
11:35	66.1	66.1	66.1	89	62.8	1	2	112	0.00	29.914 
11:40	66.3	66.3	66.3	89	63.0	0	3	248	0.00	29.914 
11:45	66.4	66.4	66.4	89	63.1	0	3	248	0.00	29.916 
11:50	66.4	66.4	66.4	88	62.7	1	2	248	0.00	29.916 
11:55	66.6	66.6	66.6	88	62.9	0	1	248	0.00	29.916 
12:00	66.6	66.6	66.6	88	62.9	0	2	248	0.00	29.915 
12:05	66.6	66.6	66.6	88	62.9	0	1	248	0.00	29.915 
12:10	66.8	66.8	66.8	88	63.1	0	1	248	0.00	29.915 
12:15	66.9	66.9	66.9	87	62.9	0	2	248	0.00	29.914 
12:20	66.9	66.9	66.9	87	62.9	0	1	248	0.00	29.914 
12:25	66.9	66.9	66.9	86	62.6	1	3	248	0.00	29.914 
12:30	67.1	67.1	67.1	86	62.8	0	2	248	0.00	29.913 
12:35	67.1	67.1	67.1	85	62.4	0	1	248	0.00	29.913 
12:40	67.3	67.3	67.3	85	62.6	0	2	248	0.00	29.913 
12:45	67.3	67.3	67.3	85	62.6	0	1	248	0.00	29.914 
12:50	67.4	67.4	67.4	85	62.7	0	1	248	0.00	29.914 
12:55	67.4	67.4	67.4	84	62.4	0	2	248	0.00	29.914 
13:00	67.4	67.4	67.4	84	62.4	0	3	248	0.00	29.914 
13:05	67.4	67.4	67.4	83	62.0	0	2	248	0.00	29.914 
13:10	67.4	67.4	67.4	83	62.0	0	1	270	0.00	29.914 
13:15	67.4	67.4	67.4	83	62.0	0	3	270	0.00	29.919 
13:20	67.3	67.3	67.3	83	62.0	0	3	112	0.00	29.919 
13:25	67.1	67.1	67.1	83	61.8	0	1	112	0.00	29.919 
13:30	67.3	67.3	67.3	84	62.3	0	1	112	0.00	29.921 
13:35	67.8	67.8	67.8	84	62.8	0	1	112	0.00	29.921 
13:40	67.9	67.9	67.9	83	62.5	0	1	112	0.00	29.921 
13:45	68.3	68.3	68.3	83	62.9	0	2	112	0.00	29.916 
13:50	68.3	68.3	68.3	82	62.6	0	1	112	0.00	29.916 
13:55	68.3	68.3	68.3	82	62.6	0	1	112	0.00	29.916 
14:00	68.1	68.1	68.1	82	62.4	0	1	112	0.00	29.913 
14:05	68.1	68.1	68.1	82	62.4	0	2	112	0.00	29.913 
14:10	68.3	68.3	68.3	81	62.2	0	2	112	0.00	29.913 
14:15	68.4	68.4	68.4	80	62.0	1	3	112	0.00	29.914 
14:20	68.6	68.6	68.6	80	62.2	0	1	112	0.00	29.914 
14:25	68.9	68.9	68.9	79	62.1	0	2	112	0.00	29.914 
14:30	69.3	69.3	69.3	78	62.1	1	3	112	0.00	29.915 
14:35	69.6	69.6	69.6	78	62.4	0	2	112	0.00	29.915 
14:40	70.8	70.8	70.8	80	64.3	0	3	112	0.00	29.915 
14:45	71.1	71.1	71.1	75	62.8	0	2	112	0.00	29.912 
14:50	70.9	70.9	70.9	75	62.6	0	2	68	0.00	29.912 
14:55	70.8	70.8	70.8	73	61.7	1	3	68	0.00	29.912 
15:00	71.5	71.5	71.5	73	62.4	1	3	292	0.00	29.912 
15:05	72.0	72.0	72.0	73	62.9	0	2	292	0.00	29.912 
15:10	72.5	72.5	72.5	72	62.9	0	3	270	0.00	29.912 
15:15	73.0	73.0	73.0	70	62.6	0	2	292	0.00	29.901 
15:20	73.2	73.2	73.2	65	60.7	1	3	292	0.00	29.901 
15:25	73.7	73.7	73.7	66	61.6	0	1	292	0.00	29.901 
15:30	74.0	74.0	74.0	63	60.6	0	1	292	0.00	29.892 
15:35	74.2	74.2	74.2	64	61.2	1	3	292	0.00	29.892 
15:40	74.2	74.2	74.2	65	61.7	0	3	292	0.00	29.892 
15:45	74.2	74.2	74.2	60	59.4	1	3	292	0.00	29.894 
15:50	74.4	74.4	74.4	64	61.4	1	3	292	0.00	29.894 
15:55	74.4	74.4	74.4	60	59.6	0	2	292	0.00	29.894 
16:00	74.2	74.2	74.2	61	59.9	2	4	292	0.00	29.895 
16:05	74.7	74.7	74.7	64	61.7	0	1	292	0.00	29.895 
16:10	75.1	75.1	77.4	61	60.7	0	2	292	0.00	29.895 
16:15	74.9	74.9	74.9	59	59.6	0	0	---	0.00	29.896 
16:20	74.6	74.6	74.6	61	60.2	0	1	292	0.00	29.896 
16:25	74.0	74.0	74.0	60	59.2	0	1	292	0.00	29.896 
16:30	73.9	73.9	73.9	62	60.0	0	1	292	0.00	29.893 
16:35	74.0	74.0	74.0	61	59.7	0	1	292	0.00	29.893 
16:40	74.0	74.0	74.0	61	59.7	0	1	292	0.00	29.893 
16:45	74.0	74.0	74.0	63	60.6	0	1	292	0.00	29.893 
16:50	74.7	74.7	74.7	57	58.4	1	2	292	0.00	29.893 
16:55	75.3	75.3	77.7	54	57.5	1	4	292	0.00	29.893 
17:00	75.3	75.3	77.7	56	58.5	2	4	292	0.00	29.891 
17:05	75.4	75.4	77.7	56	58.6	1	3	292	0.00	29.891 
17:10	75.8	75.8	78.0	55	58.5	1	3	292	0.00	29.891 
17:15	76.0	76.0	78.1	54	58.1	1	3	292	0.00	29.888 
17:20	76.1	76.1	78.1	53	57.7	1	3	292	0.00	29.888 
17:25	76.1	76.1	78.1	56	59.2	0	2	315	0.00	29.888 
17:30	76.1	76.1	78.1	57	59.7	0	2	315	0.00	29.887 
17:35	76.3	76.3	78.2	53	57.9	1	3	315	0.00	29.887 
17:40	76.0	76.0	78.1	52	57.1	1	2	315	0.00	29.887 
17:45	76.1	76.1	78.1	54	58.2	1	4	315	0.00	29.889 
17:50	76.5	76.5	78.4	54	58.6	1	4	292	0.00	29.889 
17:55	76.5	76.5	78.3	51	57.0	1	3	292	0.00	29.889 
18:00	76.0	76.0	78.1	52	57.1	1	2	292	0.00	29.891 
18:05	75.6	75.6	77.9	53	57.2	0	2	292	0.00	29.891 
18:10	75.8	75.8	78.0	53	57.4	1	3	292	0.00	29.891 
18:15	75.8	75.8	78.0	53	57.4	0	2	292	0.00	29.887 
18:20	76.0	76.0	78.1	52	57.1	1	3	292	0.00	29.887 
18:25	76.0	76.0	78.1	52	57.1	0	2	292	0.00	29.887 
18:30	76.0	76.0	78.1	54	58.1	1	3	292	0.00	29.882 
18:35	75.8	75.8	78.0	53	57.4	0	2	292	0.00	29.882 
18:40	75.8	75.8	78.0	55	58.5	0	1	292	0.00	29.882 
18:45	75.6	75.6	77.9	54	57.8	0	1	292	0.00	29.880 
18:50	75.4	75.4	77.8	52	56.5	0	2	292	0.00	29.880 
18:55	75.6	75.6	77.9	51	56.2	0	1	292	0.00	29.880 
19:00	75.6	75.6	77.9	51	56.2	0	2	292	0.00	29.888 
19:05	75.4	75.4	77.8	51	56.0	0	2	292	0.00	29.888 
19:10	75.4	75.4	77.8	51	56.0	0	1	292	0.00	29.888 
19:15	75.3	75.3	77.7	51	55.9	0	2	292	0.00	29.888 
19:20	75.3	75.3	77.7	54	57.5	0	1	292	0.00	29.888 
19:25	75.1	75.1	77.6	53	56.8	0	1	292	0.00	29.888 
19:30	74.9	74.9	74.9	54	57.1	0	1	292	0.00	29.890 
19:35	74.7	74.7	74.7	53	56.4	0	0	---	0.00	29.890 
19:40	74.6	74.6	74.6	54	56.8	0	0	---	0.00	29.890 
19:45	74.4	74.4	74.4	55	57.2	0	0	---	0.00	29.894 
19:50	74.2	74.2	74.2	56	57.5	0	0	---	0.00	29.894 
19:55	73.9	73.9	73.9	56	57.2	0	0	---	0.00	29.894 
20:00	73.7	73.7	73.7	57	57.5	0	0	---	0.00	29.891 
20:05	73.5	73.5	73.5	58	57.8	0	0	---	0.00	29.891 
20:10	73.3	73.3	73.3	58	57.6	0	0	---	0.00	29.891 
20:15	73.2	73.2	73.2	58	57.5	0	0	---	0.00	29.887 
20:20	72.8	72.8	72.8	59	57.6	0	0	---	0.00	29.887 
20:25	72.5	72.5	72.5	60	57.8	0	0	---	0.00	29.887 
20:30	72.1	72.1	72.1	62	58.3	0	0	---	0.00	29.889 
20:35	71.8	71.8	71.8	62	58.1	0	0	---	0.00	29.889 
20:40	71.5	71.5	71.5	63	58.2	0	0	---	0.00	29.889 
20:45	70.9	70.9	70.9	65	58.5	0	0	---	0.00	29.889 
20:50	70.4	70.4	70.4	66	58.5	0	0	---	0.00	29.889 
20:55	69.9	69.9	69.9	67	58.4	0	0	---	0.00	29.889 
21:00	69.4	69.4	69.4	68	58.4	0	0	---	0.00	29.899 
21:05	68.9	68.9	68.9	69	58.3	0	0	---	0.00	29.899 
21:10	68.4	68.4	68.4	70	58.2	0	0	---	0.00	29.899 
21:15	67.9	67.9	67.9	71	58.1	0	0	---	0.00	29.908 
21:20	67.6	67.6	67.6	73	58.6	0	0	---	0.00	29.908 
21:25	67.3	67.3	67.3	73	58.3	0	0	---	0.00	29.908 
21:30	67.1	67.1	67.1	74	58.5	0	0	---	0.00	29.916 
21:35	66.8	66.8	66.8	76	59.0	0	0	---	0.00	29.916 
21:40	66.6	66.6	66.6	76	58.8	0	0	---	0.00	29.916 
21:45	66.3	66.3	66.3	77	58.9	0	0	---	0.00	29.917 
21:50	66.0	66.0	66.0	77	58.6	0	0	---	0.00	29.917 
21:55	65.6	65.6	65.6	78	58.5	0	0	---	0.00	29.917 
22:00	65.5	65.5	65.5	79	58.8	0	0	---	0.00	29.917 
22:05	65.2	65.2	65.2	80	58.9	0	0	---	0.00	29.917 
22:10	65.0	65.0	65.0	81	59.0	0	0	---	0.00	29.917 
22:15	64.8	64.8	64.8	81	58.8	0	0	---	0.00	29.920 
22:20	64.7	64.7	64.7	82	59.1	0	0	---	0.00	29.920 
22:25	64.5	64.5	64.5	83	59.2	0	0	---	0.00	29.920 
22:30	64.3	64.3	64.3	83	59.0	0	0	---	0.00	29.920 
22:35	64.2	64.2	64.2	83	58.9	0	0	---	0.00	29.920 
22:40	64.0	64.0	64.0	84	59.1	0	0	---	0.00	29.920 
22:45	63.9	63.9	63.9	84	59.0	0	0	---	0.00	29.919 
22:50	63.7	63.7	63.7	85	59.1	0	0	---	0.00	29.919 
22:55	63.5	63.5	63.5	86	59.2	0	0	---	0.00	29.919 
23:00	63.4	63.4	63.4	86	59.1	0	0	---	0.00	29.917 
23:05	63.2	63.2	63.2	86	58.9	0	0	---	0.00	29.917 
23:10	63.1	63.1	63.1	87	59.2	0	0	---	0.00	29.917 
23:15	62.9	62.9	62.9	87	59.0	0	0	---	0.00	29.914 
23:20	62.9	62.9	62.9	87	59.0	0	0	---	0.00	29.914 
23:25	62.7	62.7	62.7	88	59.1	0	0	---	0.00	29.914 
23:30	62.6	62.6	62.6	88	59.0	0	0	---	0.00	29.915 
23:35	62.6	62.6	62.6	88	59.0	0	0	---	0.00	29.915 
23:40	62.4	62.4	62.4	88	58.8	0	0	---	0.00	29.915 
23:45	62.3	62.3	62.3	88	58.7	0	0	---	0.00	29.917 
23:50	62.1	62.1	62.1	88	58.5	0	0	---	0.00	29.917 
23:55	62.0	62.0	62.0	89	58.7	0	0	---	0.00	29.917 

CoCoRaHS
IN-AL-39
A2 Web Hosting
Creative Commons License
GoDaddy
search engine by freefind advanced

loaded 2018-11-17 05:42:55 • last modified 2010-11-18 10:43:29
Privacy PolicyDisclaimer
• wx.awcolley.com is powered by PmWiki v.2002016 •
• all content (unless otherwise noted) © 2018 A W Colley